Ana Sayfa
METAR-TAF:

METAR-TAF

Havaalanları :

Danbury Municipal Airport

Danbury, Connecticut, Amerika Birleşik Devletleri

Enlem: 41-22-18N, Boylam: 073-29-04W, yükseklik: 139 m

Güncel hava durumu gözlemi

Rapor saat 06:22 UTC de 40 dakika önce yapıldı.
Sakin rüzgar
Sıcaklık 19°C
Nem 94%
Basınç 1013 hPa
Görüş mesafesi: 16.1 km
700 ft yükseklikte az bulutlu
1200 ft yükseklikte parçalı çok bulutlu
12000 ft yükseklikte çok bulutlu

METAR: KDXR 240622Z AUTO 00000KT 10SM FEW007 BKN012 OVC120 19/18 A2991 RMK AO2 T01890178

Saat: 03:02 (07:02 UTC)


TAF: eksik

4.000'den fazla havaalanı için hava durumu gözlemleri ve tahminleri (METAR ve TAF raporları).

Kullanılabilir istasyonlar harita üzerinde sarı ve kırmızı noktalarla gösterilir.

İstasyonun adını görmek için fareyi noktanın üzerinde gezdirin.

Sonrasında hava gözlem ve tahminlerini görmek için tıklayın.

Haritayı değiştirmek için: yaklaştırmak için siyah artı işaretli yeşil düğmeye ve uzaklaştırmak için de eksi işaretli düğmeye hızla tıklayın; bitişik haritalar için yeşil okları kullanın.


METAR-TAF: